OJAM/ADJ METAR and TAF weather

Enter ICAO airport designator
Station Type Date Time Source
OJAM METAR 2019/02/21 12:00 UTC NOAA

OJAM 211200Z 35008KT 5000 -RA SCT020TCU SCT025 11/05 Q1019 NOSIG


Station Type Date Time Source
OJAM Decoded METAR 2019/02/21 12:00 UTC NOAA

Amman Airport, Jordan (OJAM) 31-59N 035-59E 768M
Feb 21, 2019 - 07:00 AM EST / 2019.02.21 1200 UTC
Wind: from the N (350 degrees) at 9 MPH (8 KT):0
Visibility: 3 mile(s):0
Sky conditions: partly cloudy
Weather: light rain; Towering cumulus clouds observed
Temperature: 51 F (11 C)
Dew Point: 41 F (5 C)
Relative Humidity: 66%
Pressure (altimeter): 30.09 in. Hg (1019 hPa)
ob: OJAM 211200Z 35008KT 5000 -RA SCT020TCU SCT025 11/05 Q1019 NOSIG
cycle: 12

Station Type Date Time Source
OJAM TAF 2019/02/21 12:15 UTC NOAA

TAF OJAM 211034Z 2112/2218 28010KT 5000 HZ SCT030
TEMPO 2112/2116 4000 -SHRA FEW030TCU BKN035 PROB30 2202/2206 29004KT 2000 BR


Example: see airport list